Angus, Minnesota
Current Conditions -  °F | °C
As of 11:34 PM on Tuesday 25 Nov 2014 (Local Time) from KCKN Reporting Station
Light Snow Light Snow  
Wind Chill:   Ceiling: 4300
Heat Index: 16°   Visibility: 7mi
Dew Point: 10°   Wind: 15mph
Humidity: 79%   Direction: 20°NNE
Pressure: 30.12"   Gusts: 18mph
Location:  48.08°N, 96.7°W
Report Text: KCKN 260534Z AUTO 02013G16KT 7SM -SN SCT022 BKN043 OVC080 M09/M12 A3012 RMK AO2
Loading
Personal Weather Stations






























Interactive Weather Map New forecast layout! Learn more

10-Day Weather Forecast

Advertisements
Track Severe Weather on mobile